TRA21X LFML-LOWI
Flight info
| Callsign | TRA21X |
|---|---|
| Flight time | N/A |
| Altitude | 38000 |
| Route | NASIK P856 RAPED DCT PIGOS DCT EKSID DCT NOSTA DCT NOPMU DCT NEDED DCT ASTIG DCT ABESI/N0450F370 DCT GAMSA N871 MADEB N606 ELMEM ELMEM1A |
| Aircraft | A320/M-SDE3FGHIRWY/LB1 |
Departure
| Time | 2026-05-04 12:59 |
|---|---|
| Airport | Marseille Provence Airport (LFML) |
Arrival
| Time | N/A |
|---|---|
| Airport | Innsbruck Airport (LOWI) |
| Time | Latitude | Longitude | Altitude | Speed | Heading |
|---|---|---|---|---|---|
| 2026-05-04 12:48 | 43.43358 | 5.22530 | 57 ft | 0 kts | 313° |
| 2026-05-04 12:53 | 43.43359 | 5.22528 | 57 ft | 2 kts | 313° |
| 2026-05-04 12:53 | 43.43414 | 5.22447 | 55 ft | 21 kts | 317° |
| 2026-05-04 12:54 | 43.43357 | 5.22530 | 58 ft | 0 kts | 313° |
| 2026-05-04 12:54 | 43.43378 | 5.22497 | 55 ft | 19 kts | 310° |
| 2026-05-04 12:54 | 43.43517 | 5.22272 | 52 ft | 40 kts | 310° |
| 2026-05-04 12:54 | 43.43761 | 5.21991 | 43 ft | 52 kts | 329° |
| 2026-05-04 12:55 | 43.44036 | 5.21602 | 37 ft | 61 kts | 303° |
| 2026-05-04 12:55 | 43.44267 | 5.21087 | 29 ft | 66 kts | 299° |
| 2026-05-04 12:55 | 43.44483 | 5.20608 | 23 ft | 47 kts | 315° |
| 2026-05-04 12:55 | 43.44681 | 5.20340 | 18 ft | 20 kts | 311° |
| 2026-05-04 12:56 | 43.44687 | 5.20258 | 20 ft | 1 kts | 214° |
| 2026-05-04 12:56 | 43.44669 | 5.20248 | 18 ft | 6 kts | 204° |
| 2026-05-04 12:56 | 43.44579 | 5.20218 | 19 ft | 10 kts | 158° |
| 2026-05-04 12:56 | 43.44570 | 5.20229 | 21 ft | 0 kts | 135° |
| 2026-05-04 12:58 | 43.44561 | 5.20242 | 20 ft | 22 kts | 135° |
| 2026-05-04 12:59 | 43.44199 | 5.20757 | 29 ft | 120 kts | 133° |
| 2026-05-04 12:59 | 43.43464 | 5.21805 | 249 ft | 169 kts | 134° |
| 2026-05-04 12:59 | 43.42674 | 5.22996 | 1319 ft | 171 kts | 124° |
| 2026-05-04 12:59 | 43.42165 | 5.24553 | 2256 ft | 189 kts | 107° |
| 2026-05-04 13:00 | 43.42081 | 5.26490 | 3014 ft | 220 kts | 87° |
| 2026-05-04 13:00 | 43.42377 | 5.28683 | 4021 ft | 244 kts | 86° |
| 2026-05-04 13:00 | 43.42692 | 5.31080 | 5127 ft | 262 kts | 84° |
| 2026-05-04 13:00 | 43.43018 | 5.33606 | 6238 ft | 274 kts | 85° |
| 2026-05-04 13:01 | 43.43133 | 5.36243 | 7374 ft | 278 kts | 98° |
| 2026-05-04 13:01 | 43.43027 | 5.38936 | 8557 ft | 285 kts | 98° |
| 2026-05-04 13:01 | 43.42895 | 5.41682 | 9500 ft | 294 kts | 98° |
| 2026-05-04 13:01 | 43.42749 | 5.44515 | 9937 ft | 300 kts | 97° |
| 2026-05-04 13:02 | 43.42594 | 5.47465 | 10675 ft | 321 kts | 99° |
| 2026-05-04 13:02 | 43.42422 | 5.50657 | 11233 ft | 346 kts | 99° |
| 2026-05-04 13:02 | 43.42242 | 5.54042 | 11757 ft | 369 kts | 97° |
| 2026-05-04 13:02 | 43.42059 | 5.57641 | 12657 ft | 380 kts | 97° |
| 2026-05-04 13:03 | 43.41879 | 5.61266 | 13593 ft | 387 kts | 97° |
| 2026-05-04 13:03 | 43.41693 | 5.65028 | 14458 ft | 393 kts | 97° |
| 2026-05-04 13:03 | 43.41507 | 5.68817 | 15295 ft | 398 kts | 97° |
| 2026-05-04 13:03 | 43.41502 | 5.72612 | 16101 ft | 408 kts | 85° |
| 2026-05-04 13:04 | 43.41978 | 5.76541 | 16952 ft | 414 kts | 83° |
| 2026-05-04 13:04 | 43.42489 | 5.80442 | 17786 ft | 420 kts | 82° |
| 2026-05-04 13:04 | 43.43026 | 5.84447 | 18624 ft | 425 kts | 82° |
| 2026-05-04 13:04 | 43.43563 | 5.88425 | 19337 ft | 432 kts | 82° |
| 2026-05-04 13:05 | 43.44115 | 5.92561 | 20033 ft | 437 kts | 82° |
| 2026-05-04 13:05 | 43.44659 | 5.96662 | 20720 ft | 443 kts | 82° |
| 2026-05-04 13:05 | 43.45212 | 6.00857 | 21367 ft | 448 kts | 82° |
| 2026-05-04 13:05 | 43.45771 | 6.05107 | 21964 ft | 453 kts | 82° |
| 2026-05-04 13:06 | 43.46331 | 6.09410 | 22531 ft | 458 kts | 82° |
| 2026-05-04 13:06 | 43.46889 | 6.13712 | 23146 ft | 462 kts | 82° |
| 2026-05-04 13:06 | 43.47456 | 6.18077 | 23719 ft | 465 kts | 82° |
| 2026-05-04 13:06 | 43.48030 | 6.22509 | 24182 ft | 469 kts | 82° |
| 2026-05-04 13:07 | 43.48599 | 6.26911 | 24609 ft | 473 kts | 82° |
| 2026-05-04 13:07 | 43.49179 | 6.31401 | 25059 ft | 477 kts | 82° |
| 2026-05-04 13:07 | 43.49763 | 6.35946 | 25518 ft | 481 kts | 82° |
| 2026-05-04 13:07 | 43.50346 | 6.40502 | 25950 ft | 485 kts | 82° |
| 2026-05-04 13:08 | 43.50924 | 6.45045 | 26355 ft | 489 kts | 82° |
| 2026-05-04 13:08 | 43.51510 | 6.49691 | 26725 ft | 492 kts | 82° |
| 2026-05-04 13:08 | 43.52096 | 6.54351 | 27115 ft | 495 kts | 82° |
| 2026-05-04 13:08 | 43.52684 | 6.59033 | 27470 ft | 499 kts | 82° |
| 2026-05-04 13:09 | 43.53278 | 6.63758 | 27827 ft | 502 kts | 82° |
| 2026-05-04 13:09 | 43.53876 | 6.68514 | 28145 ft | 505 kts | 82° |
| 2026-05-04 13:09 | 43.54475 | 6.73297 | 28449 ft | 508 kts | 82° |
| 2026-05-04 13:09 | 43.55076 | 6.78118 | 28729 ft | 511 kts | 82° |
| 2026-05-04 13:10 | 43.55669 | 6.82902 | 29094 ft | 511 kts | 82° |
| 2026-05-04 13:10 | 43.56265 | 6.87726 | 29484 ft | 510 kts | 82° |
| 2026-05-04 13:10 | 43.56858 | 6.92549 | 29877 ft | 510 kts | 82° |
| 2026-05-04 13:10 | 43.57449 | 6.97381 | 30259 ft | 511 kts | 82° |
| 2026-05-04 13:11 | 43.58038 | 7.02216 | 30587 ft | 511 kts | 82° |
| 2026-05-04 13:11 | 43.58628 | 7.07060 | 30914 ft | 511 kts | 82° |
| 2026-05-04 13:11 | 43.59202 | 7.11791 | 31237 ft | 511 kts | 82° |
| 2026-05-04 13:11 | 43.59805 | 7.16572 | 31581 ft | 512 kts | 79° |
| 2026-05-04 13:12 | 43.60942 | 7.21218 | 31944 ft | 513 kts | 64° |
| 2026-05-04 13:12 | 43.62846 | 7.25366 | 32316 ft | 510 kts | 48° |
| 2026-05-04 13:12 | 43.65412 | 7.28737 | 32694 ft | 504 kts | 33° |
| 2026-05-04 13:12 | 43.68397 | 7.31098 | 33065 ft | 496 kts | 19° |
| 2026-05-04 13:13 | 43.71581 | 7.32948 | 33463 ft | 495 kts | 18° |
| 2026-05-04 13:13 | 43.74779 | 7.34805 | 33863 ft | 495 kts | 18° |
| 2026-05-04 13:13 | 43.77906 | 7.36630 | 34260 ft | 494 kts | 18° |
| 2026-05-04 13:13 | 43.81084 | 7.38496 | 34634 ft | 493 kts | 18° |
| 2026-05-04 13:14 | 43.84251 | 7.40365 | 35044 ft | 492 kts | 18° |
| 2026-05-04 13:14 | 43.87404 | 7.42229 | 35433 ft | 490 kts | 18° |
| 2026-05-04 13:14 | 43.90514 | 7.44071 | 35782 ft | 490 kts | 18° |
| 2026-05-04 13:14 | 43.93651 | 7.45929 | 36149 ft | 490 kts | 18° |
| 2026-05-04 13:15 | 43.96792 | 7.47789 | 36445 ft | 489 kts | 18° |
| 2026-05-04 13:15 | 43.99883 | 7.49618 | 36739 ft | 487 kts | 19° |
| 2026-05-04 13:15 | 44.03005 | 7.51464 | 37050 ft | 487 kts | 18° |
| 2026-05-04 13:15 | 44.06126 | 7.53310 | 37388 ft | 487 kts | 18° |
| 2026-05-04 13:16 | 44.09247 | 7.55159 | 37722 ft | 486 kts | 18° |
| 2026-05-04 13:16 | 44.12342 | 7.56996 | 37997 ft | 486 kts | 18° |
| 2026-05-04 13:16 | 44.15465 | 7.58851 | 38101 ft | 486 kts | 18° |
| 2026-05-04 13:17 | 44.21661 | 7.62543 | 38114 ft | 483 kts | 18° |
| 2026-05-04 13:17 | 44.27836 | 7.66234 | 38116 ft | 483 kts | 18° |
| 2026-05-04 13:18 | 44.34035 | 7.69946 | 38127 ft | 483 kts | 18° |
| 2026-05-04 13:18 | 44.40204 | 7.73649 | 38130 ft | 482 kts | 19° |
| 2026-05-04 13:19 | 44.46341 | 7.77341 | 38138 ft | 483 kts | 19° |
| 2026-05-04 13:19 | 44.52518 | 7.81058 | 38139 ft | 483 kts | 19° |
| 2026-05-04 13:20 | 44.58621 | 7.84745 | 38139 ft | 483 kts | 19° |
| 2026-05-04 13:20 | 44.64837 | 7.88505 | 38137 ft | 483 kts | 19° |
| 2026-05-04 13:21 | 44.70846 | 7.92150 | 38122 ft | 483 kts | 19° |
| 2026-05-04 13:21 | 44.77008 | 7.95902 | 38132 ft | 483 kts | 19° |
| 2026-05-04 13:22 | 44.83186 | 7.99659 | 38125 ft | 483 kts | 19° |
| 2026-05-04 13:22 | 44.89355 | 8.03426 | 38119 ft | 482 kts | 19° |
| 2026-05-04 13:23 | 44.95498 | 8.07204 | 38138 ft | 481 kts | 19° |
| 2026-05-04 13:23 | 45.01632 | 8.10980 | 38137 ft | 481 kts | 19° |
| 2026-05-04 13:24 | 45.07783 | 8.14760 | 38131 ft | 481 kts | 19° |
| 2026-05-04 13:24 | 45.13867 | 8.18505 | 38137 ft | 480 kts | 20° |
| 2026-05-04 13:25 | 45.22950 | 8.24125 | 38135 ft | 480 kts | 20° |
| 2026-05-04 13:25 | 45.29077 | 8.27929 | 38145 ft | 480 kts | 20° |
| 2026-05-04 13:26 | 45.35187 | 8.31733 | 38146 ft | 479 kts | 20° |
| 2026-05-04 13:26 | 45.41284 | 8.35535 | 38143 ft | 478 kts | 20° |
| 2026-05-04 13:27 | 45.47362 | 8.39331 | 38144 ft | 477 kts | 20° |
| 2026-05-04 13:27 | 45.53428 | 8.43125 | 38143 ft | 476 kts | 20° |
| 2026-05-04 13:28 | 45.59487 | 8.46922 | 38134 ft | 475 kts | 21° |
| 2026-05-04 13:28 | 45.65457 | 8.50689 | 38168 ft | 475 kts | 21° |
| 2026-05-04 13:29 | 45.71532 | 8.54529 | 38148 ft | 474 kts | 21° |
| 2026-05-04 13:29 | 45.77578 | 8.58353 | 38140 ft | 474 kts | 21° |
| 2026-05-04 13:30 | 45.83619 | 8.62178 | 38129 ft | 474 kts | 21° |
| 2026-05-04 13:30 | 45.89322 | 8.65807 | 38132 ft | 474 kts | 21° |
| 2026-05-04 13:31 | 45.95349 | 8.69641 | 38135 ft | 474 kts | 21° |
| 2026-05-04 13:31 | 46.00398 | 8.72856 | 38127 ft | 474 kts | 21° |
| 2026-05-04 13:32 | 46.06427 | 8.76717 | 38141 ft | 474 kts | 22° |
| 2026-05-04 13:32 | 46.12450 | 8.80582 | 38126 ft | 474 kts | 22° |
| 2026-05-04 13:33 | 46.18488 | 8.84461 | 38128 ft | 474 kts | 22° |
| 2026-05-04 13:33 | 46.24515 | 8.88340 | 38138 ft | 475 kts | 22° |
| 2026-05-04 13:34 | 46.30557 | 8.92250 | 38123 ft | 475 kts | 22° |
| 2026-05-04 13:34 | 46.36551 | 8.96132 | 38117 ft | 475 kts | 22° |
| 2026-05-04 13:35 | 46.45639 | 9.02030 | 38088 ft | 475 kts | 22° |
| 2026-05-04 13:36 | 46.51645 | 9.05938 | 38099 ft | 475 kts | 22° |
| 2026-05-04 13:36 | 46.57671 | 9.09870 | 38092 ft | 475 kts | 22° |
| 2026-05-04 13:37 | 46.63713 | 9.13822 | 38091 ft | 476 kts | 22° |
| 2026-05-04 13:37 | 46.69754 | 9.17784 | 38064 ft | 476 kts | 22° |
| 2026-05-04 13:38 | 46.75792 | 9.21754 | 38060 ft | 477 kts | 22° |
| 2026-05-04 13:38 | 46.81846 | 9.25745 | 38069 ft | 477 kts | 22° |
| 2026-05-04 13:39 | 46.87885 | 9.29744 | 38050 ft | 476 kts | 23° |
| 2026-05-04 13:39 | 46.93917 | 9.33778 | 38024 ft | 476 kts | 23° |
| 2026-05-04 13:40 | 46.99856 | 9.37792 | 38020 ft | 475 kts | 22° |
| 2026-05-04 13:40 | 47.05620 | 9.42476 | 38011 ft | 477 kts | 41° |
| 2026-05-04 13:40 | 47.07828 | 9.46078 | 37839 ft | 477 kts | 56° |
| 2026-05-04 13:41 | 47.09290 | 9.50328 | 37617 ft | 474 kts | 72° |
| 2026-05-04 13:41 | 47.10180 | 9.54984 | 37493 ft | 474 kts | 76° |
| 2026-05-04 13:41 | 47.11031 | 9.59656 | 37363 ft | 475 kts | 76° |
| 2026-05-04 13:42 | 47.12742 | 9.69003 | 37091 ft | 475 kts | 76° |
| 2026-05-04 13:42 | 47.13605 | 9.73684 | 36945 ft | 475 kts | 76° |
| 2026-05-04 13:42 | 47.14469 | 9.78369 | 36769 ft | 475 kts | 76° |
| 2026-05-04 13:42 | 47.15298 | 9.83053 | 36577 ft | 474 kts | 80° |
| 2026-05-04 13:43 | 47.15568 | 9.87848 | 36393 ft | 470 kts | 95° |
| 2026-05-04 13:43 | 47.15300 | 9.92626 | 36215 ft | 469 kts | 98° |
| 2026-05-04 13:43 | 47.14991 | 9.97377 | 36042 ft | 468 kts | 98° |
| 2026-05-04 13:43 | 47.14666 | 10.02150 | 35861 ft | 468 kts | 98° |
| 2026-05-04 13:44 | 47.14334 | 10.06899 | 35691 ft | 467 kts | 98° |
| 2026-05-04 13:44 | 47.13997 | 10.11652 | 35524 ft | 467 kts | 98° |
| 2026-05-04 13:44 | 47.13662 | 10.16394 | 35352 ft | 467 kts | 98° |
| 2026-05-04 13:44 | 47.13328 | 10.21148 | 35122 ft | 468 kts | 98° |
| 2026-05-04 13:45 | 47.13004 | 10.25817 | 34545 ft | 467 kts | 98° |
| 2026-05-04 13:45 | 47.12677 | 10.30556 | 34272 ft | 466 kts | 98° |
| 2026-05-04 13:45 | 47.12392 | 10.34724 | 34073 ft | 465 kts | 98° |
| 2026-05-04 13:45 | 47.12061 | 10.39530 | 33820 ft | 465 kts | 98° |
| 2026-05-04 13:46 | 47.11727 | 10.44260 | 33561 ft | 466 kts | 98° |
| 2026-05-04 13:46 | 47.11385 | 10.49005 | 33310 ft | 468 kts | 98° |
| 2026-05-04 13:46 | 47.11042 | 10.53711 | 33070 ft | 468 kts | 98° |
| 2026-05-04 13:46 | 47.10694 | 10.58475 | 32829 ft | 469 kts | 98° |
| 2026-05-04 13:47 | 47.10348 | 10.63246 | 32574 ft | 470 kts | 98° |
| 2026-05-04 13:47 | 47.10000 | 10.68035 | 32344 ft | 470 kts | 98° |
| 2026-05-04 13:47 | 47.09650 | 10.72805 | 32099 ft | 470 kts | 98° |
| 2026-05-04 13:47 | 47.09297 | 10.77543 | 31815 ft | 470 kts | 98° |
| 2026-05-04 13:48 | 47.08940 | 10.82334 | 31560 ft | 470 kts | 98° |
| 2026-05-04 13:48 | 47.08585 | 10.87093 | 31306 ft | 471 kts | 98° |
| 2026-05-04 13:48 | 47.08227 | 10.91828 | 31038 ft | 471 kts | 98° |
| 2026-05-04 13:48 | 47.07866 | 10.96604 | 30795 ft | 472 kts | 98° |
| 2026-05-04 13:49 | 47.07503 | 11.01384 | 30559 ft | 473 kts | 98° |
| 2026-05-04 13:49 | 47.07136 | 11.06195 | 30310 ft | 474 kts | 98° |
| 2026-05-04 13:49 | 47.06766 | 11.10997 | 30007 ft | 475 kts | 98° |
| 2026-05-04 13:49 | 47.06392 | 11.15816 | 29607 ft | 476 kts | 99° |
| 2026-05-04 13:50 | 47.06012 | 11.20634 | 29202 ft | 475 kts | 99° |
| 2026-05-04 13:50 | 47.05639 | 11.25410 | 28812 ft | 474 kts | 99° |
| 2026-05-04 13:50 | 47.05263 | 11.30206 | 28399 ft | 473 kts | 99° |
| 2026-05-04 13:50 | 47.04883 | 11.34981 | 28006 ft | 472 kts | 99° |
| 2026-05-04 13:51 | 47.04498 | 11.39769 | 27582 ft | 472 kts | 99° |
| 2026-05-04 13:51 | 47.04118 | 11.44537 | 27143 ft | 472 kts | 98° |
| 2026-05-04 13:51 | 47.04042 | 11.49405 | 26714 ft | 484 kts | 87° |
| 2026-05-04 13:51 | 47.04559 | 11.54315 | 26279 ft | 489 kts | 77° |
| 2026-05-04 13:52 | 47.07234 | 11.63535 | 25426 ft | 495 kts | 63° |
| 2026-05-04 13:52 | 47.08816 | 11.67977 | 24938 ft | 499 kts | 63° |
| 2026-05-04 13:52 | 47.10436 | 11.72477 | 24481 ft | 499 kts | 60° |
| 2026-05-04 13:53 | 47.12430 | 11.76721 | 23994 ft | 500 kts | 51° |
| 2026-05-04 13:53 | 47.14787 | 11.80373 | 23535 ft | 497 kts | 44° |
| 2026-05-04 13:53 | 47.17287 | 11.83962 | 22986 ft | 495 kts | 42° |
| 2026-05-04 13:54 | 47.22998 | 11.89178 | 21922 ft | 481 kts | 21° |
| 2026-05-04 13:54 | 47.26222 | 11.90590 | 21543 ft | 476 kts | 10° |
| 2026-05-04 13:54 | 47.32751 | 11.91938 | 21020 ft | 472 kts | 6° |
| 2026-05-04 13:55 | 47.36015 | 11.92462 | 20752 ft | 470 kts | 360° |
| 2026-05-04 13:55 | 47.42128 | 11.89861 | 20083 ft | 458 kts | 324° |
| 2026-05-04 13:55 | 47.44421 | 11.86758 | 19730 ft | 451 kts | 306° |
| 2026-05-04 13:56 | 47.45993 | 11.82801 | 19408 ft | 444 kts | 289° |
| 2026-05-04 13:56 | 47.46725 | 11.78372 | 19059 ft | 437 kts | 273° |
| 2026-05-04 13:56 | 47.45625 | 11.69777 | 18390 ft | 425 kts | 241° |
| 2026-05-04 13:57 | 47.43965 | 11.66268 | 18038 ft | 421 kts | 227° |
| 2026-05-04 13:57 | 47.42092 | 11.62951 | 17690 ft | 420 kts | 231° |
| 2026-05-04 13:58 | 47.38084 | 11.51856 | 16666 ft | 395 kts | 250° |
| 2026-05-04 13:58 | 47.36962 | 11.44399 | 16005 ft | 340 kts | 259° |
| 2026-05-04 13:58 | 47.36656 | 11.41098 | 15679 ft | 312 kts | 260° |
| 2026-05-04 13:59 | 47.36381 | 11.38087 | 15448 ft | 288 kts | 259° |
| 2026-05-04 13:59 | 47.36127 | 11.35278 | 15299 ft | 264 kts | 259° |
| 2026-05-04 13:59 | 47.35601 | 11.29713 | 15016 ft | 314 kts | 259° |
| 2026-05-04 14:00 | 47.35266 | 11.26316 | 14859 ft | 351 kts | 259° |
| 2026-05-04 14:00 | 47.34552 | 11.18810 | 14425 ft | 377 kts | 260° |
| 2026-05-04 14:00 | 47.34218 | 11.15186 | 14228 ft | 337 kts | 260° |
| 2026-05-04 14:01 | 47.33895 | 11.11702 | 14001 ft | 354 kts | 259° |
| 2026-05-04 14:01 | 47.33540 | 11.08004 | 13815 ft | 373 kts | 260° |
| 2026-05-04 14:01 | 47.32881 | 11.01064 | 13396 ft | 300 kts | 259° |
| 2026-05-04 14:02 | 47.32828 | 10.98086 | 13148 ft | 287 kts | 275° |
| 2026-05-04 14:02 | 47.33027 | 10.95215 | 12611 ft | 281 kts | 271° |
| 2026-05-04 14:02 | 47.32897 | 10.92360 | 12085 ft | 277 kts | 256° |
| 2026-05-04 14:02 | 47.31743 | 10.90688 | 11535 ft | 254 kts | 159° |
| 2026-05-04 14:03 | 47.30611 | 10.92663 | 10559 ft | 277 kts | 115° |
| 2026-05-04 14:03 | 47.30128 | 10.95528 | 9545 ft | 282 kts | 102° |
| 2026-05-04 14:03 | 47.29890 | 10.98284 | 8805 ft | 268 kts | 99° |
| 2026-05-04 14:03 | 47.29690 | 11.01001 | 8103 ft | 258 kts | 101° |
| 2026-05-04 14:04 | 47.29355 | 11.05340 | 7640 ft | 224 kts | 96° |
| 2026-05-04 14:04 | 47.29211 | 11.07554 | 7265 ft | 213 kts | 99° |
| 2026-05-04 14:04 | 47.28935 | 11.09663 | 6791 ft | 207 kts | 107° |
| 2026-05-04 14:05 | 47.28213 | 11.13420 | 6425 ft | 179 kts | 107° |
| 2026-05-04 14:05 | 47.27921 | 11.15107 | 6281 ft | 165 kts | 105° |
| 2026-05-04 14:05 | 47.27648 | 11.16779 | 5852 ft | 179 kts | 106° |
| 2026-05-04 14:06 | 47.27332 | 11.18625 | 5453 ft | 193 kts | 105° |
| 2026-05-04 14:06 | 47.27046 | 11.20560 | 5257 ft | 192 kts | 101° |
| 2026-05-04 14:06 | 47.26795 | 11.22412 | 5034 ft | 184 kts | 100° |
| 2026-05-04 14:06 | 47.26549 | 11.24248 | 4633 ft | 183 kts | 102° |
| 2026-05-04 14:07 | 47.26254 | 11.26043 | 4295 ft | 178 kts | 104° |
| 2026-05-04 14:07 | 47.25958 | 11.27916 | 3483 ft | 201 kts | 104° |
| 2026-05-04 14:07 | 47.25780 | 11.30041 | 2653 ft | 215 kts | 96° |
| 2026-05-04 14:07 | 47.25791 | 11.31912 | 2299 ft | 198 kts | 92° |
| 2026-05-04 14:08 | 47.25966 | 11.33845 | 1952 ft | 176 kts | 82° |
| 2026-05-04 14:08 | 47.26115 | 11.35374 | 1908 ft | 132 kts | 90° |
| 2026-05-04 14:08 | 47.26084 | 11.35828 | 1910 ft | 98 kts | 127° |
| 2026-05-04 14:08 | 47.26031 | 11.36082 | 1904 ft | 65 kts | 32° |